sensor_id;sensor_type;location;lat;lon;timestamp;pressure;altitude;pressure_sealevel;temperature;humidity
34931;BME280;21134;49.646;8.560;2023-04-27T00:00:40;100621.94;;;4.54;88.12
34931;BME280;21134;49.646;8.560;2023-04-27T00:03:06;100626.88;;;4.50;87.84
34931;BME280;21134;49.646;8.560;2023-04-27T00:05:35;100621.72;;;4.47;88.59
34931;BME280;21134;49.646;8.560;2023-04-27T00:08:03;100623.47;;;4.48;89.55
34931;BME280;21134;49.646;8.560;2023-04-27T00:10:30;100624.97;;;4.41;89.52
34931;BME280;21134;49.646;8.560;2023-04-27T00:12:56;100627.44;;;4.38;90.22
34931;BME280;21134;49.646;8.560;2023-04-27T00:15:23;100621.38;;;4.33;90.37
34931;BME280;21134;49.646;8.560;2023-04-27T00:17:49;100626.44;;;4.33;89.45
34931;BME280;21134;49.646;8.560;2023-04-27T00:20:16;100625.56;;;4.31;89.26
34931;BME280;21134;49.646;8.560;2023-04-27T00:22:46;100625.47;;;4.28;88.77
34931;BME280;21134;49.646;8.560;2023-04-27T00:25:12;100621.13;;;4.24;88.83
34931;BME280;21134;49.646;8.560;2023-04-27T00:27:39;100620.19;;;4.20;88.76
34931;BME280;21134;49.646;8.560;2023-04-27T00:30:06;100620.13;;;4.17;88.82
34931;BME280;21134;49.646;8.560;2023-04-27T00:32:33;100616.72;;;4.16;89.22
34931;BME280;21134;49.646;8.560;2023-04-27T00:35:00;100613.25;;;4.13;88.95
34931;BME280;21134;49.646;8.560;2023-04-27T00:37:26;100613.13;;;4.08;89.35
34931;BME280;21134;49.646;8.560;2023-04-27T00:39:54;100613.00;;;4.04;89.88
34931;BME280;21134;49.646;8.560;2023-04-27T00:42:20;100609.44;;;3.97;90.27
34931;BME280;21134;49.646;8.560;2023-04-27T00:44:49;100606.75;;;3.91;89.69
34931;BME280;21134;49.646;8.560;2023-04-27T00:47:15;100607.69;;;3.94;89.20
34931;BME280;21134;49.646;8.560;2023-04-27T00:49:43;100606.84;;;3.94;88.88
34931;BME280;21134;49.646;8.560;2023-04-27T00:52:10;100605.66;;;3.83;89.70
34931;BME280;21134;49.646;8.560;2023-04-27T00:54:37;100607.06;;;3.71;90.07
34931;BME280;21134;49.646;8.560;2023-04-27T00:57:05;100607.88;;;3.70;90.05
34931;BME280;21134;49.646;8.560;2023-04-27T00:59:31;100616.13;;;3.65;89.59
34931;BME280;21134;49.646;8.560;2023-04-27T01:01:58;100612.69;;;3.63;89.99
34931;BME280;21134;49.646;8.560;2023-04-27T01:04:25;100611.84;;;3.62;89.66
34931;BME280;21134;49.646;8.560;2023-04-27T01:06:53;100618.50;;;3.59;90.44
34931;BME280;21134;49.646;8.560;2023-04-27T01:09:19;100617.53;;;3.55;89.58
34931;BME280;21134;49.646;8.560;2023-04-27T01:11:46;100624.22;;;3.53;90.27
34931;BME280;21134;49.646;8.560;2023-04-27T01:14:14;100618.19;;;3.48;90.67
34931;BME280;21134;49.646;8.560;2023-04-27T01:16:41;100625.81;;;3.49;90.77
34931;BME280;21134;49.646;8.560;2023-04-27T01:19:08;100623.28;;;3.49;90.21
34931;BME280;21134;49.646;8.560;2023-04-27T01:21:35;100628.22;;;3.45;90.75
34931;BME280;21134;49.646;8.560;2023-04-27T01:24:04;100615.56;;;3.45;90.85
34931;BME280;21134;49.646;8.560;2023-04-27T01:26:31;100627.94;;;3.36;91.29
34931;BME280;21134;49.646;8.560;2023-04-27T01:28:58;100626.34;;;3.39;90.92
34931;BME280;21134;49.646;8.560;2023-04-27T01:31:25;100628.78;;;3.36;91.71
34931;BME280;21134;49.646;8.560;2023-04-27T01:33:51;100627.94;;;3.36;91.34
34931;BME280;21134;49.646;8.560;2023-04-27T01:36:17;100625.34;;;3.34;91.12
34931;BME280;21134;49.646;8.560;2023-04-27T01:38:44;100624.38;;;3.31;91.77
34931;BME280;21134;49.646;8.560;2023-04-27T01:41:12;100623.66;;;3.35;91.31
34931;BME280;21134;49.646;8.560;2023-04-27T01:43:38;100629.44;;;3.31;91.64
34931;BME280;21134;49.646;8.560;2023-04-27T01:46:06;100627.84;;;3.33;91.52
34931;BME280;21134;49.646;8.560;2023-04-27T01:48:33;100626.88;;;3.29;91.53
34931;BME280;21134;49.646;8.560;2023-04-27T01:51:00;100627.56;;;3.23;91.45
34931;BME280;21134;49.646;8.560;2023-04-27T01:53:27;100621.47;;;3.18;91.60
34931;BME280;21134;49.646;8.560;2023-04-27T01:55:53;100631.66;;;3.20;91.72
34931;BME280;21134;49.646;8.560;2023-04-27T01:58:21;100633.16;;;3.15;92.20
34931;BME280;21134;49.646;8.560;2023-04-27T02:00:48;100623.13;;;3.16;92.75
34931;BME280;21134;49.646;8.560;2023-04-27T02:03:14;100634.13;;;3.18;91.89
34931;BME280;21134;49.646;8.560;2023-04-27T02:05:41;100625.66;;;3.16;91.71
34931;BME280;21134;49.646;8.560;2023-04-27T02:08:07;100629.81;;;3.16;92.53
34931;BME280;21134;49.646;8.560;2023-04-27T02:10:34;100623.13;;;3.16;92.57
34931;BME280;21134;49.646;8.560;2023-04-27T02:13:01;100633.91;;;3.11;92.89
34931;BME280;21134;49.646;8.560;2023-04-27T02:15:29;100638.94;;;3.11;93.46
34931;BME280;21134;49.646;8.560;2023-04-27T02:17:55;100629.69;;;3.11;94.16
34931;BME280;21134;49.646;8.560;2023-04-27T02:20:23;100631.50;;;3.15;93.72
34931;BME280;21134;49.646;8.560;2023-04-27T02:22:49;100633.44;;;3.22;93.02
34931;BME280;21134;49.646;8.560;2023-04-27T02:25:17;100633.38;;;3.21;93.91
34931;BME280;21134;49.646;8.560;2023-04-27T02:27:44;100635.78;;;3.18;93.90
34931;BME280;21134;49.646;8.560;2023-04-27T02:30:11;100634.09;;;3.17;94.06
34931;BME280;21134;49.646;8.560;2023-04-27T02:32:39;100646.56;;;3.12;94.12
34931;BME280;21134;49.646;8.560;2023-04-27T02:35:07;100657.56;;;3.13;95.21
34931;BME280;21134;49.646;8.560;2023-04-27T02:37:34;100652.44;;;3.11;94.52
34931;BME280;21134;49.646;8.560;2023-04-27T02:40:00;100651.53;;;3.09;94.64
34931;BME280;21134;49.646;8.560;2023-04-27T02:42:28;100651.53;;;3.09;95.28
34931;BME280;21134;49.646;8.560;2023-04-27T02:44:55;100648.25;;;3.12;95.54
34931;BME280;21134;49.646;8.560;2023-04-27T02:47:21;100650.66;;;3.09;95.95
34931;BME280;21134;49.646;8.560;2023-04-27T02:49:49;100653.34;;;3.13;96.20
34931;BME280;21134;49.646;8.560;2023-04-27T02:52:15;100649.91;;;3.11;97.05
34931;BME280;21134;49.646;8.560;2023-04-27T02:54:42;100657.63;;;3.16;96.89
34931;BME280;21134;49.646;8.560;2023-04-27T02:57:08;100645.00;;;3.16;96.52
34931;BME280;21134;49.646;8.560;2023-04-27T02:59:35;100645.16;;;3.20;95.79
34931;BME280;21134;49.646;8.560;2023-04-27T03:02:01;100652.84;;;3.23;96.07
34931;BME280;21134;49.646;8.560;2023-04-27T03:04:28;100650.25;;;3.22;96.71
34931;BME280;21134;49.646;8.560;2023-04-27T03:06:55;100655.28;;;3.22;97.25
34931;BME280;21134;49.646;8.560;2023-04-27T03:09:22;100652.84;;;3.23;96.64
34931;BME280;21134;49.646;8.560;2023-04-27T03:11:48;100651.38;;;3.32;96.30
34931;BME280;21134;49.646;8.560;2023-04-27T03:14:15;100650.72;;;3.37;96.49
34931;BME280;21134;49.646;8.560;2023-04-27T03:16:41;100643.47;;;3.48;96.03
34931;BME280;21134;49.646;8.560;2023-04-27T03:19:08;100645.31;;;3.54;95.74
34931;BME280;21134;49.646;8.560;2023-04-27T03:21:34;100651.47;;;3.62;95.41
34931;BME280;21134;49.646;8.560;2023-04-27T03:24:03;100640.78;;;3.70;94.81
34931;BME280;21134;49.646;8.560;2023-04-27T03:26:30;100638.41;;;3.77;95.37
34931;BME280;21134;49.646;8.560;2023-04-27T03:28:57;100635.25;;;3.84;95.17
34931;BME280;21134;49.646;8.560;2023-04-27T03:31:23;100640.41;;;3.88;95.06
34931;BME280;21134;49.646;8.560;2023-04-27T03:33:50;100640.50;;;3.91;94.83
34931;BME280;21134;49.646;8.560;2023-04-27T03:36:16;100643.94;;;3.93;94.83
34931;BME280;21134;49.646;8.560;2023-04-27T03:38:43;100641.59;;;4.00;95.06
34931;BME280;21134;49.646;8.560;2023-04-27T03:41:12;100633.44;;;4.10;94.46
34931;BME280;21134;49.646;8.560;2023-04-27T03:43:38;100637.00;;;4.16;94.76
34931;BME280;21134;49.646;8.560;2023-04-27T03:46:05;100641.22;;;4.17;93.91
34931;BME280;21134;49.646;8.560;2023-04-27T03:48:31;100637.16;;;4.23;94.34
34931;BME280;21134;49.646;8.560;2023-04-27T03:50:59;100639.69;;;4.23;93.41
34931;BME280;21134;49.646;8.560;2023-04-27T03:53:25;100637.19;;;4.24;93.94
34931;BME280;21134;49.646;8.560;2023-04-27T03:55:52;100634.72;;;4.26;93.61
34931;BME280;21134;49.646;8.560;2023-04-27T03:58:20;100635.63;;;4.29;93.70
34931;BME280;21134;49.646;8.560;2023-04-27T04:00:46;100641.66;;;4.33;93.00
34931;BME280;21134;49.646;8.560;2023-04-27T04:03:13;100649.06;;;4.27;92.58
34931;BME280;21134;49.646;8.560;2023-04-27T04:05:39;100644.84;;;4.26;92.91
34931;BME280;21134;49.646;8.560;2023-04-27T04:08:06;100640.44;;;4.20;92.09
34931;BME280;21134;49.646;8.560;2023-04-27T04:10:32;100647.97;;;4.17;92.30
34931;BME280;21134;49.646;8.560;2023-04-27T04:12:59;100647.94;;;4.15;92.47
34931;BME280;21134;49.646;8.560;2023-04-27T04:15:26;100646.28;;;4.17;92.17
34931;BME280;21134;49.646;8.560;2023-04-27T04:17:53;100647.28;;;4.23;92.10
34931;BME280;21134;49.646;8.560;2023-04-27T04:20:19;100638.91;;;4.25;91.70
34931;BME280;21134;49.646;8.560;2023-04-27T04:22:46;100641.47;;;4.27;91.17
34931;BME280;21134;49.646;8.560;2023-04-27T04:25:13;100649.06;;;4.25;91.26
34931;BME280;21134;49.646;8.560;2023-04-27T04:27:40;100645.75;;;4.28;91.48
34931;BME280;21134;49.646;8.560;2023-04-27T04:30:07;100650.00;;;4.30;91.61
34931;BME280;21134;49.646;8.560;2023-04-27T04:32:35;100643.59;;;4.43;90.96
34931;BME280;21134;49.646;8.560;2023-04-27T04:35:03;100646.22;;;4.46;91.35
34931;BME280;21134;49.646;8.560;2023-04-27T04:37:31;100642.97;;;4.50;90.47
34931;BME280;21134;49.646;8.560;2023-04-27T04:39:58;100643.22;;;4.61;90.49
34931;BME280;21134;49.646;8.560;2023-04-27T04:42:25;100639.91;;;4.63;90.51
34931;BME280;21134;49.646;8.560;2023-04-27T04:44:51;100640.09;;;4.71;90.34
34931;BME280;21134;49.646;8.560;2023-04-27T04:47:18;100648.69;;;4.76;89.78
34931;BME280;21134;49.646;8.560;2023-04-27T04:49:46;100643.69;;;4.79;89.74
34931;BME280;21134;49.646;8.560;2023-04-27T04:52:12;100638.81;;;4.87;89.07
34931;BME280;21134;49.646;8.560;2023-04-27T04:54:38;100649.94;;;4.92;88.82
34931;BME280;21134;49.646;8.560;2023-04-27T04:57:05;100647.41;;;4.94;88.73
34931;BME280;21134;49.646;8.560;2023-04-27T04:59:32;100653.47;;;4.99;88.77
34931;BME280;21134;49.646;8.560;2023-04-27T05:01:59;100654.41;;;5.02;88.31
34931;BME280;21134;49.646;8.560;2023-04-27T05:04:25;100643.63;;;5.11;88.13
34931;BME280;21134;49.646;8.560;2023-04-27T05:06:53;100648.00;;;5.18;87.77
34931;BME280;21134;49.646;8.560;2023-04-27T05:09:20;100653.25;;;5.26;87.71
34931;BME280;21134;49.646;8.560;2023-04-27T05:11:46;100657.59;;;5.30;87.17
34931;BME280;21134;49.646;8.560;2023-04-27T05:14:13;100656.97;;;5.40;86.77
34931;BME280;21134;49.646;8.560;2023-04-27T05:16:39;100654.56;;;5.46;86.13
34931;BME280;21134;49.646;8.560;2023-04-27T05:19:06;100662.25;;;5.49;85.33
34931;BME280;21134;49.646;8.560;2023-04-27T05:21:32;100665.94;;;5.64;85.03
34931;BME280;21134;49.646;8.560;2023-04-27T05:24:00;100664.53;;;5.76;84.77
34931;BME280;21134;49.646;8.560;2023-04-27T05:26:27;100663.00;;;5.85;84.03
34931;BME280;21134;49.646;8.560;2023-04-27T05:28:53;100669.78;;;5.84;83.61
34931;BME280;21134;49.646;8.560;2023-04-27T05:31:20;100674.31;;;5.97;82.77
34931;BME280;21134;49.646;8.560;2023-04-27T05:33:46;100675.25;;;6.02;82.24
34931;BME280;21134;49.646;8.560;2023-04-27T05:36:13;100686.50;;;6.15;82.08
34931;BME280;21134;49.646;8.560;2023-04-27T05:38:39;100689.25;;;6.24;81.53
34931;BME280;21134;49.646;8.560;2023-04-27T05:41:08;100692.94;;;6.40;80.09
34931;BME280;21134;49.646;8.560;2023-04-27T05:43:34;100696.38;;;6.42;80.18
34931;BME280;21134;49.646;8.560;2023-04-27T05:46:02;100696.19;;;6.33;79.50
34931;BME280;21134;49.646;8.560;2023-04-27T05:48:29;100692.09;;;6.41;79.47
34931;BME280;21134;49.646;8.560;2023-04-27T05:50:59;100694.69;;;6.44;79.80
34931;BME280;21134;49.646;8.560;2023-04-27T05:53:27;100691.53;;;6.55;79.32
34931;BME280;21134;49.646;8.560;2023-04-27T05:55:53;100695.09;;;6.64;78.80
34931;BME280;21134;49.646;8.560;2023-04-27T05:58:22;100694.38;;;6.73;78.22
34931;BME280;21134;49.646;8.560;2023-04-27T06:00:48;100697.41;;;6.99;77.30
34931;BME280;21134;49.646;8.560;2023-04-27T06:03:15;100701.59;;;6.98;77.54
34931;BME280;21134;49.646;8.560;2023-04-27T06:05:41;100700.88;;;7.04;78.50
34931;BME280;21134;49.646;8.560;2023-04-27T06:08:08;100706.97;;;7.14;78.30
34931;BME280;21134;49.646;8.560;2023-04-27T06:10:35;100707.75;;;7.10;78.17
34931;BME280;21134;49.646;8.560;2023-04-27T06:13:01;100708.47;;;7.03;79.73
34931;BME280;21134;49.646;8.560;2023-04-27T06:15:29;100713.72;;;7.12;79.68
34931;BME280;21134;49.646;8.560;2023-04-27T06:17:55;100709.91;;;7.38;78.36
34931;BME280;21134;49.646;8.560;2023-04-27T06:20:22;100719.28;;;7.41;78.76
34931;BME280;21134;49.646;8.560;2023-04-27T06:22:48;100711.97;;;7.64;76.65
34931;BME280;21134;49.646;8.560;2023-04-27T06:25:15;100718.00;;;7.69;76.04
34931;BME280;21134;49.646;8.560;2023-04-27T06:27:41;100717.91;;;7.63;76.63
34931;BME280;21134;49.646;8.560;2023-04-27T06:30:09;100715.69;;;7.86;76.06
34931;BME280;21134;49.646;8.560;2023-04-27T06:32:37;100726.22;;;8.10;75.38
34931;BME280;21134;49.646;8.560;2023-04-27T06:35:04;100729.78;;;8.23;74.48
34931;BME280;21134;49.646;8.560;2023-04-27T06:37:30;100734.91;;;8.28;74.40
34931;BME280;21134;49.646;8.560;2023-04-27T06:39:57;100724.06;;;8.40;73.36
34931;BME280;21134;49.646;8.560;2023-04-27T06:42:23;100727.41;;;8.38;72.66
34931;BME280;21134;49.646;8.560;2023-04-27T06:44:52;100730.84;;;8.42;73.03
34931;BME280;21134;49.646;8.560;2023-04-27T06:47:19;100730.25;;;8.61;73.44
34931;BME280;21134;49.646;8.560;2023-04-27T06:49:47;100737.25;;;8.82;71.80
34931;BME280;21134;49.646;8.560;2023-04-27T06:52:13;100736.25;;;8.67;72.92
34931;BME280;21134;49.646;8.560;2023-04-27T06:54:40;100739.81;;;8.81;73.02
34931;BME280;21134;49.646;8.560;2023-04-27T06:57:06;100743.28;;;8.88;71.98
34931;BME280;21134;49.646;8.560;2023-04-27T06:59:33;100746.75;;;8.94;71.61
34931;BME280;21134;49.646;8.560;2023-04-27T07:01:59;100740.75;;;8.91;72.13
34931;BME280;21134;49.646;8.560;2023-04-27T07:04:26;100745.91;;;8.98;72.30
34931;BME280;21134;49.646;8.560;2023-04-27T07:06:54;100738.38;;;9.11;72.20
34931;BME280;21134;49.646;8.560;2023-04-27T07:09:21;100737.63;;;9.19;71.27
34931;BME280;21134;49.646;8.560;2023-04-27T07:11:47;100736.03;;;9.32;70.24
34931;BME280;21134;49.646;8.560;2023-04-27T07:14:13;100745.44;;;9.44;69.04
34931;BME280;21134;49.646;8.560;2023-04-27T07:16:40;100737.75;;;9.38;69.17
34931;BME280;21134;49.646;8.560;2023-04-27T07:19:08;100733.53;;;9.43;69.12
34931;BME280;21134;49.646;8.560;2023-04-27T07:21:34;100733.69;;;9.61;68.85
34931;BME280;21134;49.646;8.560;2023-04-27T07:24:02;100737.97;;;9.68;68.16
34931;BME280;21134;49.646;8.560;2023-04-27T07:26:29;100736.34;;;9.80;67.87
34931;BME280;21134;49.646;8.560;2023-04-27T07:28:57;100745.00;;;10.05;66.85
34931;BME280;21134;49.646;8.560;2023-04-27T07:31:23;100741.72;;;10.30;65.96
34931;BME280;21134;49.646;8.560;2023-04-27T07:33:50;100740.94;;;10.39;62.79
34931;BME280;21134;49.646;8.560;2023-04-27T07:36:17;100740.97;;;10.46;62.89
34931;BME280;21134;49.646;8.560;2023-04-27T07:38:43;100744.41;;;10.53;62.21
34931;BME280;21134;49.646;8.560;2023-04-27T07:41:11;100742.72;;;10.64;61.86
34931;BME280;21134;49.646;8.560;2023-04-27T07:43:38;100741.03;;;10.88;60.29
34931;BME280;21134;49.646;8.560;2023-04-27T07:46:06;100738.53;;;11.14;59.40
34931;BME280;21134;49.646;8.560;2023-04-27T07:48:32;100741.13;;;11.20;59.51
34931;BME280;21134;49.646;8.560;2023-04-27T07:50:59;100736.81;;;11.40;59.17
34931;BME280;21134;49.646;8.560;2023-04-27T07:53:25;100729.97;;;11.69;57.33
34931;BME280;21134;49.646;8.560;2023-04-27T07:55:52;100718.84;;;11.70;58.12
34931;BME280;21134;49.646;8.560;2023-04-27T07:58:20;100719.69;;;11.81;56.33
34931;BME280;21134;49.646;8.560;2023-04-27T08:00:46;100718.81;;;11.83;55.25
34931;BME280;21134;49.646;8.560;2023-04-27T08:03:13;100719.72;;;11.90;55.35
34931;BME280;21134;49.646;8.560;2023-04-27T08:05:39;100711.16;;;11.91;54.85
34931;BME280;21134;49.646;8.560;2023-04-27T08:08:05;100715.44;;;11.86;55.81
34931;BME280;21134;49.646;8.560;2023-04-27T08:10:32;100714.53;;;11.99;55.01
34931;BME280;21134;49.646;8.560;2023-04-27T08:12:58;100713.59;;;12.23;55.57
34931;BME280;21134;49.646;8.560;2023-04-27T08:15:26;100712.56;;;12.53;54.34
34931;BME280;21134;49.646;8.560;2023-04-27T08:17:53;100713.41;;;12.62;55.02
34931;BME280;21134;49.646;8.560;2023-04-27T08:20:19;100720.91;;;12.91;53.47
34931;BME280;21134;49.646;8.560;2023-04-27T08:22:46;100712.31;;;12.99;53.32
34931;BME280;21134;49.646;8.560;2023-04-27T08:25:12;100714.72;;;13.19;53.07
34931;BME280;21134;49.646;8.560;2023-04-27T08:27:40;100710.34;;;13.34;52.75
34931;BME280;21134;49.646;8.560;2023-04-27T08:30:07;100717.84;;;13.57;51.63
34931;BME280;21134;49.646;8.560;2023-04-27T08:32:35;100701.47;;;13.64;51.25
34931;BME280;21134;49.646;8.560;2023-04-27T08:35:02;100698.63;;;13.90;49.13
34931;BME280;21134;49.646;8.560;2023-04-27T08:37:28;100694.88;;;14.17;48.62
34931;BME280;21134;49.646;8.560;2023-04-27T08:39:55;100698.84;;;14.42;47.07
34931;BME280;21134;49.646;8.560;2023-04-27T08:42:21;100693.28;;;14.73;46.79
34931;BME280;21134;49.646;8.560;2023-04-27T08:44:48;100701.78;;;14.78;45.20
34931;BME280;21134;49.646;8.560;2023-04-27T08:47:15;100698.69;;;15.12;45.39
34931;BME280;21134;49.646;8.560;2023-04-27T08:49:42;100697.97;;;15.04;45.44
34931;BME280;21134;49.646;8.560;2023-04-27T08:52:10;100698.94;;;14.97;46.93
34931;BME280;21134;49.646;8.560;2023-04-27T08:54:37;100694.69;;;14.93;47.31
34931;BME280;21134;49.646;8.560;2023-04-27T08:57:07;100695.47;;;14.98;47.17
34931;BME280;21134;49.646;8.560;2023-04-27T08:59:34;100701.09;;;15.21;46.57
34931;BME280;21134;49.646;8.560;2023-04-27T09:02:02;100704.66;;;15.16;45.37
34931;BME280;21134;49.646;8.560;2023-04-27T09:04:35;100703.78;;;15.17;45.21
34931;BME280;21134;49.646;8.560;2023-04-27T09:07:10;100703.22;;;15.47;44.73
34931;BME280;21134;49.646;8.560;2023-04-27T09:09:37;100715.94;;;15.58;45.42
34931;BME280;21134;49.646;8.560;2023-04-27T09:12:13;100717.50;;;15.68;42.40
34931;BME280;21134;49.646;8.560;2023-04-27T09:14:40;100714.00;;;15.72;42.51
34931;BME280;21134;49.646;8.560;2023-04-27T09:17:07;100704.75;;;15.61;42.10
34931;BME280;21134;49.646;8.560;2023-04-27T09:19:33;100703.72;;;15.71;42.31
34931;BME280;21134;49.646;8.560;2023-04-27T09:22:04;100698.84;;;15.52;42.92
34931;BME280;21134;49.646;8.560;2023-04-27T09:24:32;100695.50;;;15.47;42.88
34931;BME280;21134;49.646;8.560;2023-04-27T09:26:59;100700.41;;;15.11;44.24
34931;BME280;21134;49.646;8.560;2023-04-27T09:29:32;100696.38;;;14.97;43.62
34931;BME280;21134;49.646;8.560;2023-04-27T09:31:59;100689.88;;;15.25;42.87
34931;BME280;21134;49.646;8.560;2023-04-27T09:34:25;100688.69;;;15.45;41.98
34931;BME280;21134;49.646;8.560;2023-04-27T09:36:52;100673.97;;;15.50;41.88
34931;BME280;21134;49.646;8.560;2023-04-27T09:39:18;100680.38;;;15.77;46.01
34931;BME280;21134;49.646;8.560;2023-04-27T09:41:47;100684.84;;;16.12;43.42
34931;BME280;21134;49.646;8.560;2023-04-27T09:44:15;100674.13;;;16.29;42.73
34931;BME280;21134;49.646;8.560;2023-04-27T09:46:41;100678.72;;;16.55;42.44
34931;BME280;21134;49.646;8.560;2023-04-27T09:49:11;100674.66;;;16.45;42.46
34931;BME280;21134;49.646;8.560;2023-04-27T09:51:38;100674.69;;;16.43;42.02
34931;BME280;21134;49.646;8.560;2023-04-27T09:54:06;100674.72;;;16.42;42.21
34931;BME280;21134;49.646;8.560;2023-04-27T09:56:44;100672.63;;;16.59;42.34
34931;BME280;21134;49.646;8.560;2023-04-27T09:59:35;100678.06;;;16.86;41.27
34931;BME280;21134;49.646;8.560;2023-04-27T10:02:10;100676.09;;;16.95;42.14
34931;BME280;21134;49.646;8.560;2023-04-27T10:04:53;100680.63;;;16.86;40.86
34931;BME280;21134;49.646;8.560;2023-04-27T10:07:26;100668.25;;;16.61;41.31
34931;BME280;21134;49.646;8.560;2023-04-27T10:09:52;100663.13;;;16.60;41.83
34931;BME280;21134;49.646;8.560;2023-04-27T10:12:21;100669.78;;;16.70;40.67
34931;BME280;21134;49.646;8.560;2023-04-27T10:14:50;100668.63;;;16.83;42.49
34931;BME280;21134;49.646;8.560;2023-04-27T10:17:18;100676.44;;;17.16;40.85
34931;BME280;21134;49.646;8.560;2023-04-27T10:19:52;100671.09;;;17.24;41.24
34931;BME280;21134;49.646;8.560;2023-04-27T10:22:20;100664.72;;;17.37;40.57
34931;BME280;21134;49.646;8.560;2023-04-27T10:24:48;100678.47;;;17.37;40.87
34931;BME280;21134;49.646;8.560;2023-04-27T10:27:16;100668.00;;;17.42;41.64
34931;BME280;21134;49.646;8.560;2023-04-27T10:29:45;100669.09;;;17.66;40.89
34931;BME280;21134;49.646;8.560;2023-04-27T10:32:20;100674.94;;;17.74;40.35
34931;BME280;21134;49.646;8.560;2023-04-27T10:34:48;100672.63;;;17.95;40.87
34931;BME280;21134;49.646;8.560;2023-04-27T10:37:15;100666.56;;;17.96;40.85
34931;BME280;21134;49.646;8.560;2023-04-27T10:39:44;100673.97;;;18.08;40.63
34931;BME280;21134;49.646;8.560;2023-04-27T10:42:11;100660.16;;;18.37;39.01
34931;BME280;21134;49.646;8.560;2023-04-27T10:44:38;100648.75;;;18.71;40.08
34931;BME280;21134;49.646;8.560;2023-04-27T10:47:14;100655.81;;;18.94;38.57
34931;BME280;21134;49.646;8.560;2023-04-27T10:49:41;100649.59;;;18.71;37.82
34931;BME280;21134;49.646;8.560;2023-04-27T10:52:08;100646.88;;;18.76;38.72
34931;BME280;21134;49.646;8.560;2023-04-27T10:54:35;100653.47;;;18.86;37.61
34931;BME280;21134;49.646;8.560;2023-04-27T10:57:05;100652.19;;;18.71;37.61
34931;BME280;21134;49.646;8.560;2023-04-27T10:59:32;100644.34;;;18.74;39.01
34931;BME280;21134;49.646;8.560;2023-04-27T11:01:59;100640.63;;;18.83;37.09
34931;BME280;21134;49.646;8.560;2023-04-27T11:04:36;100639.63;;;18.59;39.39
34931;BME280;21134;49.646;8.560;2023-04-27T11:07:04;100643.09;;;18.58;39.22
34931;BME280;21134;49.646;8.560;2023-04-27T11:09:33;100634.97;;;18.42;39.37
34931;BME280;21134;49.646;8.560;2023-04-27T11:12:00;100638.41;;;18.43;38.68
34931;BME280;21134;49.646;8.560;2023-04-27T11:14:26;100636.75;;;18.40;38.47
34931;BME280;21134;49.646;8.560;2023-04-27T11:16:53;100630.88;;;18.35;38.06
34931;BME280;21134;49.646;8.560;2023-04-27T11:19:19;100634.22;;;18.39;38.54
34931;BME280;21134;49.646;8.560;2023-04-27T11:21:47;100633.50;;;18.62;39.89
34931;BME280;21134;49.646;8.560;2023-04-27T11:24:13;100635.91;;;18.66;39.90
34931;BME280;21134;49.646;8.560;2023-04-27T11:26:41;100624.22;;;18.83;39.13
34931;BME280;21134;49.646;8.560;2023-04-27T11:29:08;100629.38;;;19.09;38.83
34931;BME280;21134;49.646;8.560;2023-04-27T11:31:39;100625.88;;;19.35;37.73
34931;BME280;21134;49.646;8.560;2023-04-27T11:34:06;100620.97;;;19.51;37.23
34931;BME280;21134;49.646;8.560;2023-04-27T11:36:32;100630.56;;;19.49;35.93
34931;BME280;21134;49.646;8.560;2023-04-27T11:39:00;100623.91;;;19.67;37.48
34931;BME280;21134;49.646;8.560;2023-04-27T11:41:34;100621.34;;;19.65;36.36
34931;BME280;21134;49.646;8.560;2023-04-27T11:44:05;100618.69;;;19.67;36.57
34931;BME280;21134;49.646;8.560;2023-04-27T11:46:34;100622.75;;;19.74;37.47
34931;BME280;21134;49.646;8.560;2023-04-27T11:49:02;100620.78;;;19.81;36.24
34931;BME280;21134;49.646;8.560;2023-04-27T11:51:30;100608.78;;;20.00;37.19
34931;BME280;21134;49.646;8.560;2023-04-27T11:54:01;100612.25;;;20.23;37.55
34931;BME280;21134;49.646;8.560;2023-04-27T11:56:35;100599.78;;;20.10;36.50
34931;BME280;21134;49.646;8.560;2023-04-27T11:59:01;100607.50;;;20.12;36.45
34931;BME280;21134;49.646;8.560;2023-04-27T12:01:29;100613.13;;;20.23;36.14
34931;BME280;21134;49.646;8.560;2023-04-27T12:03:56;100596.38;;;20.30;36.33
34931;BME280;21134;49.646;8.560;2023-04-27T12:06:23;100594.53;;;20.32;36.57
34931;BME280;21134;49.646;8.560;2023-04-27T12:08:50;100600.88;;;20.03;35.57
34931;BME280;21134;49.646;8.560;2023-04-27T12:11:18;100581.34;;;19.71;35.87
34931;BME280;21134;49.646;8.560;2023-04-27T12:13:45;100584.97;;;19.67;37.93
34931;BME280;21134;49.646;8.560;2023-04-27T12:16:12;100582.84;;;19.77;35.62
34931;BME280;21134;49.646;8.560;2023-04-27T12:18:38;100573.91;;;19.60;36.43
34931;BME280;21134;49.646;8.560;2023-04-27T12:21:05;100574.84;;;19.83;37.45
34931;BME280;21134;49.646;8.560;2023-04-27T12:23:32;100579.59;;;20.17;37.81
34931;BME280;21134;49.646;8.560;2023-04-27T12:25:58;100577.81;;;20.39;36.39
34931;BME280;21134;49.646;8.560;2023-04-27T12:28:26;100575.34;;;20.58;36.09
34931;BME280;21134;49.646;8.560;2023-04-27T12:30:53;100569.41;;;20.55;36.21
34931;BME280;21134;49.646;8.560;2023-04-27T12:33:20;100567.19;;;20.46;36.48
34931;BME280;21134;49.646;8.560;2023-04-27T12:35:46;100559.75;;;20.58;37.05
34931;BME280;21134;49.646;8.560;2023-04-27T12:38:13;100554.31;;;20.64;35.92
34931;BME280;21134;49.646;8.560;2023-04-27T12:40:39;100556.72;;;20.47;36.31
34931;BME280;21134;49.646;8.560;2023-04-27T12:43:07;100565.31;;;20.27;36.29
34931;BME280;21134;49.646;8.560;2023-04-27T12:45:35;100555.59;;;20.10;36.60
34931;BME280;21134;49.646;8.560;2023-04-27T12:48:01;100551.91;;;20.16;36.29
34931;BME280;21134;49.646;8.560;2023-04-27T12:50:29;100565.00;;;20.35;36.36
34931;BME280;21134;49.646;8.560;2023-04-27T12:52:55;100563.09;;;20.18;35.08
34931;BME280;21134;49.646;8.560;2023-04-27T12:55:22;100557.56;;;20.26;35.91